Time;durP1;ratioP1;P1;durP2;ratioP2;P2;SDS_P1;SDS_P2;PMS_P1;PMS_P2;Temp;Humidity;BMP_temperature;BMP_pressure;BME280_temperature;BME280_humidity;BME280_pressure;Samples;Min_cycle;Max_cycle;Signal;HPM_P1;HPM_P2
2022/04/11 00:02:23;;;;;;;6.00;3.40;;;2.30;99.90;;;;;;5097691;28;20149;-84
2022/04/11 00:04:49;;;;;;;6.30;2.95;;;2.30;99.90;;;;;;5108031;28;20074;-83
2022/04/11 00:07:15;;;;;;;8.75;3.72;;;2.20;99.90;;;;;;5100690;28;20086;-82
2022/04/11 00:09:40;;;;;;;5.13;2.60;;;2.30;99.90;;;;;;5096954;28;20035;-83
2022/04/11 00:12:06;;;;;;;5.68;2.65;;;2.20;99.90;;;;;;5103426;27;20040;-83
2022/04/11 00:14:32;;;;;;;7.03;3.85;;;2.20;99.90;;;;;;5099683;28;20416;-83
2022/04/11 00:16:57;;;;;;;7.15;3.50;;;2.20;99.90;;;;;;5101587;28;20043;-83
2022/04/11 00:19:23;;;;;;;6.60;4.55;;;2.20;99.90;;;;;;5097689;28;20123;-82
2022/04/11 00:21:48;;;;;;;9.45;3.97;;;2.10;99.90;;;;;;5102682;27;20039;-83
2022/04/11 00:24:14;;;;;;;7.78;3.85;;;2.00;99.90;;;;;;5104513;28;20530;-83
2022/04/11 00:26:40;;;;;;;7.40;3.50;;;2.00;99.90;;;;;;5108763;28;20094;-82
2022/04/11 00:29:05;;;;;;;8.50;2.70;;;2.00;99.90;;;;;;5098290;28;20486;-83
2022/04/11 00:31:31;;;;;;;6.88;3.35;;;2.00;99.90;;;;;;5107404;28;20047;-83
2022/04/11 00:33:57;;;;;;;6.20;3.50;;;2.00;99.90;;;;;;5103812;28;20039;-83
2022/04/11 00:36:22;;;;;;;11.77;3.83;;;2.00;99.90;;;;;;5100912;28;20047;-83
2022/04/11 00:38:48;;;;;;;7.25;4.20;;;2.00;99.90;;;;;;5103518;28;20494;-82
2022/04/11 00:41:14;;;;;;;5.88;3.08;;;2.00;99.90;;;;;;5104150;28;20050;-81
2022/04/11 00:43:40;;;;;;;6.05;2.50;;;2.00;99.90;;;;;;5095245;27;20048;-82
2022/04/11 00:46:08;;;;;;;8.02;3.40;;;2.10;99.90;;;;;;5112284;28;20043;-82
2022/04/11 00:48:35;;;;;;;5.13;2.60;;;2.00;99.90;;;;;;5121143;27;20043;-82
2022/04/11 00:51:04;;;;;;;6.40;3.00;;;2.00;99.90;;;;;;5113068;27;20051;-81
2022/04/11 00:53:33;;;;;;;6.57;3.33;;;2.00;99.90;;;;;;5108485;28;20051;-82
2022/04/11 00:56:00;;;;;;;8.93;3.37;;;2.00;99.90;;;;;;5096578;28;20506;-82
2022/04/11 00:58:26;;;;;;;7.07;2.80;;;1.90;99.90;;;;;;5106958;28;20039;-82
2022/04/11 01:00:51;;;;;;;6.85;3.72;;;1.90;99.90;;;;;;5105019;27;20122;-82
2022/04/11 01:03:17;;;;;;;5.28;2.75;;;1.90;99.90;;;;;;5111750;27;20557;-82
2022/04/11 01:05:43;;;;;;;5.95;3.20;;;2.00;99.90;;;;;;5110726;27;20472;-82
2022/04/11 01:08:10;;;;;;;14.20;4.63;;;2.00;99.90;;;;;;5106626;28;20048;-81
2022/04/11 01:10:36;;;;;;;6.32;3.35;;;2.00;99.90;;;;;;5100212;28;20108;-82
2022/04/11 01:13:02;;;;;;;13.55;3.45;;;1.90;99.90;;;;;;5104503;28;20082;-83
2022/04/11 01:15:28;;;;;;;6.80;2.97;;;1.90;99.90;;;;;;5120245;27;20678;-83
2022/04/11 01:17:54;;;;;;;10.88;3.28;;;1.90;99.90;;;;;;5105894;27;20035;-82
2022/04/11 01:20:20;;;;;;;11.90;3.95;;;1.90;99.90;;;;;;5108394;28;20044;-82
2022/04/11 01:22:47;;;;;;;7.93;3.30;;;1.90;99.90;;;;;;5105274;28;20865;-83
2022/04/11 01:25:14;;;;;;;4.35;2.15;;;1.90;99.90;;;;;;5108830;27;20052;-82
2022/04/11 01:27:40;;;;;;;6.68;3.65;;;1.90;99.90;;;;;;5102873;28;20580;-82
2022/04/11 01:30:08;;;;;;;7.63;3.05;;;1.90;99.90;;;;;;5106447;27;20049;-83
2022/04/11 01:32:35;;;;;;;6.28;2.95;;;1.90;99.90;;;;;;5102372;28;20036;-83
2022/04/11 01:35:01;;;;;;;4.97;3.00;;;1.80;99.90;;;;;;5103419;28;20118;-83
2022/04/11 01:37:27;;;;;;;9.38;4.00;;;1.90;99.90;;;;;;5091954;28;20146;-83
2022/04/11 01:39:53;;;;;;;11.63;4.38;;;1.90;99.90;;;;;;5109814;28;21865;-82
2022/04/11 01:42:18;;;;;;;3.65;2.95;;;1.90;99.90;;;;;;5095841;28;20471;-82
2022/04/11 01:44:44;;;;;;;10.02;4.13;;;1.90;99.90;;;;;;5104764;28;20036;-81
2022/04/11 01:47:09;;;;;;;5.00;3.45;;;1.90;99.90;;;;;;5098352;27;20043;-82
2022/04/11 01:49:35;;;;;;;7.82;2.47;;;1.80;99.90;;;;;;5110305;27;20047;-81
2022/04/11 01:52:00;;;;;;;7.68;3.92;;;1.80;99.90;;;;;;5108136;28;20080;-78
2022/04/11 01:54:26;;;;;;;6.60;3.05;;;1.80;99.90;;;;;;5103318;27;20051;-83
2022/04/11 01:56:52;;;;;;;9.07;2.63;;;1.80;99.90;;;;;;5104118;28;20043;-83
2022/04/11 01:59:17;;;;;;;6.05;2.95;;;1.60;99.90;;;;;;5105967;27;20047;-82
2022/04/11 02:01:43;;;;;;;4.07;2.60;;;1.60;99.90;;;;;;5102603;28;20043;-85
2022/04/11 02:04:09;;;;;;;6.03;2.53;;;1.60;99.90;;;;;;5103605;28;20036;-81
2022/04/11 02:06:35;;;;;;;5.97;2.67;;;1.40;99.90;;;;;;5105489;28;20457;-84
2022/04/11 02:09:01;;;;;;;4.60;2.42;;;1.40;99.90;;;;;;5101393;27;20087;-82
2022/04/11 02:11:26;;;;;;;18.75;3.15;;;1.30;99.90;;;;;;5103011;28;20036;-81
2022/04/11 02:13:52;;;;;;;10.10;4.18;;;1.30;99.90;;;;;;5104350;28;20508;-82
2022/04/11 02:16:17;;;;;;;4.38;2.17;;;1.20;99.90;;;;;;5106690;27;20379;-82
2022/04/11 02:18:43;;;;;;;5.30;2.15;;;1.20;99.90;;;;;;5104023;27;20051;-82
2022/04/11 02:21:09;;;;;;;4.28;3.00;;;1.30;99.90;;;;;;5111866;27;20039;-79
2022/04/11 02:23:34;;;;;;;9.75;3.33;;;1.30;99.90;;;;;;5101339;28;20050;-84
2022/04/11 02:26:00;;;;;;;8.63;3.20;;;1.10;99.90;;;;;;5105990;28;20047;-82
2022/04/11 02:28:26;;;;;;;4.22;2.58;;;1.00;99.90;;;;;;5112610;27;20505;-83
2022/04/11 02:30:51;;;;;;;7.32;2.50;;;0.80;99.90;;;;;;5109390;28;20038;-84
2022/04/11 02:33:17;;;;;;;6.30;2.90;;;0.80;99.90;;;;;;5107911;28;20044;-82
2022/04/11 02:35:43;;;;;;;5.53;2.85;;;0.80;99.90;;;;;;5101311;28;20047;-83
2022/04/11 02:38:08;;;;;;;6.85;2.53;;;0.80;99.90;;;;;;5106355;28;20105;-77
2022/04/11 02:40:34;;;;;;;5.68;2.58;;;0.80;99.90;;;;;;5110260;28;20517;-82
2022/04/11 02:42:59;;;;;;;7.63;2.65;;;0.80;99.90;;;;;;5126446;28;20055;-83
2022/04/11 02:45:25;;;;;;;5.07;2.60;;;0.80;99.90;;;;;;5121912;28;20052;-82
2022/04/11 02:47:51;;;;;;;6.63;3.30;;;0.80;99.90;;;;;;5091685;28;20046;-83
2022/04/11 02:50:16;;;;;;;5.65;2.85;;;0.80;99.90;;;;;;5105476;28;20088;-81
2022/04/11 02:52:42;;;;;;;8.10;3.70;;;0.80;99.90;;;;;;5131031;28;20032;-78
2022/04/11 02:55:08;;;;;;;8.50;2.50;;;0.90;99.90;;;;;;5127793;28;20071;-82
2022/04/11 02:57:36;;;;;;;5.03;2.80;;;1.00;99.90;;;;;;5107565;28;20069;-83
2022/04/11 03:00:07;;;;;;;9.05;2.08;;;0.80;99.90;;;;;;5110242;28;20164;-82
2022/04/11 03:02:33;;;;;;;5.78;2.20;;;0.80;99.90;;;;;;5091575;28;20048;-82
2022/04/11 03:04:59;;;;;;;5.32;2.92;;;0.80;99.90;;;;;;5089963;28;20482;-82
2022/04/11 03:07:27;;;;;;;4.28;2.58;;;0.80;99.90;;;;;;5114224;28;20122;-82
2022/04/11 03:09:53;;;;;;;6.22;3.67;;;0.80;99.90;;;;;;5110166;28;20051;-82
2022/04/11 03:12:19;;;;;;;5.90;3.22;;;0.80;99.90;;;;;;5106908;28;20044;-82
2022/04/11 03:14:47;;;;;;;4.25;3.10;;;0.80;99.90;;;;;;5110872;28;20046;-82
2022/04/11 03:17:12;;;;;;;6.25;3.10;;;0.80;99.90;;;;;;5091556;28;20036;-82
2022/04/11 03:19:38;;;;;;;5.55;2.40;;;0.80;99.90;;;;;;5098397;28;20101;-83
2022/04/11 03:22:04;;;;;;;2.53;2.13;;;0.80;99.90;;;;;;5100305;28;20562;-83
2022/04/11 03:24:29;;;;;;;4.10;2.17;;;0.80;99.90;;;;;;5101937;28;20061;-83
2022/04/11 03:26:55;;;;;;;2.88;2.20;;;0.90;99.90;;;;;;5108450;28;20569;-83
2022/04/11 03:29:21;;;;;;;3.85;2.80;;;1.00;99.90;;;;;;5105862;28;20093;-83
2022/04/11 03:31:48;;;;;;;4.45;2.90;;;1.00;99.90;;;;;;5099402;28;20123;-83
2022/04/11 03:34:13;;;;;;;2.78;1.83;;;0.90;99.90;;;;;;5096443;28;20072;-83
2022/04/11 03:36:39;;;;;;;7.32;2.55;;;0.90;99.90;;;;;;5100761;28;20039;-82
2022/04/11 03:39:05;;;;;;;3.85;3.40;;;0.90;99.90;;;;;;5088838;28;20044;-83
2022/04/11 03:41:30;;;;;;;5.65;2.25;;;1.10;99.90;;;;;;5109783;28;20040;-81
2022/04/11 03:43:56;;;;;;;4.95;2.15;;;1.00;99.90;;;;;;5133886;28;20067;-80
2022/04/11 03:46:22;;;;;;;3.95;2.30;;;1.10;99.90;;;;;;5127745;28;20035;-80
2022/04/11 03:48:47;;;;;;;10.38;2.83;;;1.10;99.90;;;;;;5121889;28;20050;-80
2022/04/11 03:51:13;;;;;;;8.35;3.53;;;1.20;99.90;;;;;;5125175;28;20028;-78
2022/04/11 03:53:38;;;;;;;3.55;2.15;;;1.30;99.90;;;;;;5131480;28;20095;-75
2022/04/11 03:56:05;;;;;;;5.32;2.80;;;1.30;99.90;;;;;;5135594;28;20028;-80
2022/04/11 03:58:31;;;;;;;7.47;2.42;;;1.30;99.90;;;;;;5128029;28;20096;-80
2022/04/11 04:00:56;;;;;;;8.32;2.85;;;1.30;99.90;;;;;;5138216;28;20019;-81
2022/04/11 04:03:22;;;;;;;4.40;2.15;;;1.30;99.90;;;;;;5132352;28;20054;-81
2022/04/11 04:05:48;;;;;;;4.63;1.60;;;1.40;99.90;;;;;;5138996;27;20024;-80
2022/04/11 04:08:17;;;;;;;7.28;2.25;;;1.40;99.90;;;;;;5134051;27;20032;-78
2022/04/11 04:10:44;;;;;;;9.00;2.88;;;1.50;99.90;;;;;;5142495;27;20083;-77
2022/04/11 04:13:10;;;;;;;2.55;2.00;;;1.50;99.90;;;;;;5137321;28;20044;-75
2022/04/11 04:15:37;;;;;;;3.42;1.63;;;1.40;99.90;;;;;;5131854;28;20043;-80
2022/04/11 04:18:03;;;;;;;5.90;2.67;;;1.50;99.90;;;;;;5120339;28;20494;-80
2022/04/11 04:20:29;;;;;;;4.32;2.92;;;1.50;99.90;;;;;;5127740;28;20032;-83
2022/04/11 04:22:55;;;;;;;10.82;2.20;;;1.40;99.90;;;;;;5143024;27;20100;-81
2022/04/11 04:25:21;;;;;;;6.97;2.83;;;1.50;99.90;;;;;;5127559;28;20059;-79
2022/04/11 04:27:47;;;;;;;4.88;3.17;;;1.60;99.90;;;;;;5130257;28;20031;-79
2022/04/11 04:30:13;;;;;;;4.10;2.90;;;1.70;99.90;;;;;;5136875;28;20058;-79
2022/04/11 04:32:40;;;;;;;11.30;2.95;;;1.70;99.90;;;;;;5135538;27;20714;-75
2022/04/11 04:35:07;;;;;;;8.25;3.88;;;1.70;99.90;;;;;;5116792;28;20047;-81
2022/04/11 04:37:33;;;;;;;5.43;3.42;;;1.70;99.90;;;;;;5135386;28;20047;-81
2022/04/11 04:39:59;;;;;;;4.40;3.25;;;1.70;99.90;;;;;;5137434;28;20112;-81
2022/04/11 04:42:26;;;;;;;3.28;2.33;;;1.70;99.90;;;;;;5136815;28;20043;-80
2022/04/11 04:44:53;;;;;;;8.15;2.70;;;1.70;99.90;;;;;;5118682;28;20040;-82
2022/04/11 04:47:18;;;;;;;8.90;3.00;;;1.80;99.90;;;;;;5118125;28;20055;-81
2022/04/11 04:49:46;;;;;;;4.32;3.13;;;1.80;99.90;;;;;;5107334;28;20187;-83
2022/04/11 04:52:12;;;;;;;12.80;3.75;;;1.90;99.90;;;;;;5116526;28;20008;-82
2022/04/11 04:54:38;;;;;;;11.27;3.58;;;1.90;99.90;;;;;;5119516;28;20043;-82
2022/04/11 04:57:04;;;;;;;10.38;3.15;;;2.00;99.90;;;;;;5128905;27;20450;-82
2022/04/11 04:59:30;;;;;;;15.88;4.55;;;2.00;99.90;;;;;;5108014;27;20921;-82
2022/04/11 05:01:56;;;;;;;14.57;4.63;;;2.00;99.90;;;;;;5132257;27;20035;-82
2022/04/11 05:04:21;;;;;;;8.10;4.10;;;2.10;99.90;;;;;;5103133;28;20491;-82
2022/04/11 05:06:47;;;;;;;12.10;3.85;;;2.10;99.90;;;;;;5134376;27;20039;-81
2022/04/11 05:09:13;;;;;;;6.35;2.78;;;2.10;99.90;;;;;;5105715;27;20126;-83
2022/04/11 05:11:38;;;;;;;8.48;3.10;;;2.20;99.90;;;;;;5108213;28;20078;-76
2022/04/11 05:14:04;;;;;;;6.00;2.45;;;2.20;99.90;;;;;;5092712;28;20054;-81
2022/04/11 05:16:30;;;;;;;4.28;2.92;;;2.20;99.90;;;;;;5084573;28;20086;-82
2022/04/11 05:18:55;;;;;;;6.55;3.47;;;2.30;99.90;;;;;;5109219;27;20039;-83
2022/04/11 05:21:21;;;;;;;5.63;3.40;;;2.30;99.90;;;;;;5119144;27;20039;-81
2022/04/11 05:23:46;;;;;;;6.82;3.50;;;2.30;99.90;;;;;;5110568;27;20048;-81
2022/04/11 05:26:12;;;;;;;9.73;2.88;;;2.40;99.90;;;;;;5111739;28;20421;-82
2022/04/11 05:28:37;;;;;;;6.07;3.33;;;2.40;99.90;;;;;;5099020;28;20136;-82
2022/04/11 05:31:03;;;;;;;5.78;2.65;;;2.40;99.90;;;;;;5101804;28;20044;-82
2022/04/11 05:33:29;;;;;;;4.68;3.53;;;2.30;99.90;;;;;;5103328;28;20047;-81
2022/04/11 05:35:56;;;;;;;13.50;3.38;;;2.40;99.90;;;;;;5099723;28;20044;-81
2022/04/11 05:38:22;;;;;;;6.97;3.50;;;2.50;99.90;;;;;;5104330;28;20044;-81
2022/04/11 05:40:47;;;;;;;5.95;2.78;;;2.50;99.90;;;;;;5102749;28;20035;-82
2022/04/11 05:43:13;;;;;;;16.67;3.45;;;2.60;99.90;;;;;;5098959;28;20047;-82
2022/04/11 05:45:39;;;;;;;6.63;2.80;;;2.60;99.90;;;;;;5105098;27;20047;-78
2022/04/11 05:48:05;;;;;;;5.60;2.72;;;2.60;99.90;;;;;;5107440;28;20078;-84
2022/04/11 05:50:32;;;;;;;4.18;2.28;;;2.70;99.90;;;;;;5108683;28;20061;-81
2022/04/11 05:52:58;;;;;;;9.20;2.75;;;2.70;99.90;;;;;;5106327;28;20467;-83
2022/04/11 05:55:24;;;;;;;24.75;3.42;;;2.70;99.90;;;;;;5097049;28;20061;-81
2022/04/11 05:57:50;;;;;;;15.52;3.53;;;2.70;99.90;;;;;;5101214;28;20374;-82
2022/04/11 06:00:16;;;;;;;9.35;3.67;;;2.70;99.90;;;;;;5107056;28;20031;-82
2022/04/11 06:02:42;;;;;;;4.90;3.40;;;2.70;99.90;;;;;;5111298;28;20042;-82
2022/04/11 06:05:09;;;;;;;6.28;3.40;;;2.80;99.90;;;;;;5110138;28;20355;-82
2022/04/11 06:07:35;;;;;;;7.07;4.07;;;2.80;99.90;;;;;;5109108;28;20400;-82
2022/04/11 06:10:03;;;;;;;10.82;3.70;;;2.90;99.90;;;;;;5089609;28;20766;-83
2022/04/11 06:12:28;;;;;;;8.43;3.50;;;2.80;99.90;;;;;;5101413;28;20366;-82
2022/04/11 06:14:54;;;;;;;8.95;3.20;;;2.80;99.90;;;;;;5105311;28;20089;-80
2022/04/11 06:17:23;;;;;;;6.35;3.08;;;2.90;99.90;;;;;;5101462;28;20039;-81
2022/04/11 06:19:50;;;;;;;8.05;3.25;;;2.90;99.90;;;;;;5099904;28;20562;-81
2022/04/11 06:22:17;;;;;;;6.60;3.67;;;2.90;99.90;;;;;;5104549;27;20070;-82
2022/04/11 06:24:43;;;;;;;6.90;3.92;;;3.00;99.90;;;;;;5105048;28;20062;-79
2022/04/11 06:27:09;;;;;;;7.03;3.17;;;3.00;99.90;;;;;;5081935;28;20058;-81
2022/04/11 06:29:35;;;;;;;8.02;3.22;;;3.10;99.90;;;;;;5104161;27;20036;-81
2022/04/11 06:32:04;;;;;;;9.25;3.50;;;3.10;99.90;;;;;;5105655;28;20040;-80
2022/04/11 06:34:36;;;;;;;7.30;4.22;;;3.20;99.90;;;;;;5105006;27;20410;-79
2022/04/11 06:37:05;;;;;;;4.32;3.00;;;3.20;99.90;;;;;;5100637;28;20062;-80
2022/04/11 06:39:31;;;;;;;5.90;2.45;;;3.30;99.90;;;;;;5103606;28;20390;-80
2022/04/11 06:41:57;;;;;;;5.47;3.00;;;3.30;99.90;;;;;;5112139;28;20129;-80
2022/04/11 06:44:24;;;;;;;7.10;3.30;;;3.40;99.90;;;;;;5106074;28;20051;-80
2022/04/11 06:46:50;;;;;;;7.47;3.90;;;3.40;99.90;;;;;;5099832;27;20101;-80
2022/04/11 06:49:15;;;;;;;6.35;3.20;;;3.50;99.90;;;;;;5091119;28;20191;-81
2022/04/11 06:51:41;;;;;;;5.75;3.35;;;3.60;99.90;;;;;;5090061;28;20067;-79
2022/04/11 06:54:07;;;;;;;11.27;3.67;;;3.60;99.90;;;;;;5078931;28;20035;-80
2022/04/11 06:56:32;;;;;;;7.13;3.10;;;3.60;99.90;;;;;;5121502;27;20050;-81
2022/04/11 06:58:58;;;;;;;5.60;2.72;;;3.60;99.90;;;;;;5118373;27;21041;-79
2022/04/11 07:01:23;;;;;;;10.88;4.85;;;3.80;99.90;;;;;;5090150;28;20046;-83
2022/04/11 07:03:51;;;;;;;6.85;3.53;;;3.90;99.90;;;;;;5089281;28;20048;-82
2022/04/11 07:06:17;;;;;;;5.80;3.13;;;3.90;99.90;;;;;;5077048;28;20048;-80
2022/04/11 07:08:42;;;;;;;7.28;2.83;;;4.10;99.90;;;;;;5097607;28;20044;-81
2022/04/11 07:11:08;;;;;;;5.68;2.90;;;4.20;99.90;;;;;;5089923;28;20028;-82
2022/04/11 07:13:34;;;;;;;4.47;3.35;;;4.30;99.90;;;;;;5090409;28;20560;-81
2022/04/11 07:16:00;;;;;;;4.72;3.08;;;4.50;99.90;;;;;;5094190;28;20508;-82
2022/04/11 07:18:27;;;;;;;10.23;4.03;;;4.60;99.90;;;;;;5108368;28;20119;-83
2022/04/11 07:20:56;;;;;;;5.78;2.83;;;4.60;99.90;;;;;;5091300;28;20040;-82
2022/04/11 07:23:22;;;;;;;8.10;2.45;;;4.60;99.90;;;;;;5089386;28;20044;-83
2022/04/11 07:25:48;;;;;;;12.48;3.28;;;4.80;99.90;;;;;;5105553;28;20506;-81
2022/04/11 07:28:14;;;;;;;24.17;5.65;;;4.90;99.90;;;;;;5098567;28;20044;-80
2022/04/11 07:30:40;;;;;;;4.90;2.95;;;4.90;99.90;;;;;;5143556;27;20059;-78
2022/04/11 07:33:07;;;;;;;7.60;3.00;;;5.00;99.90;;;;;;5115636;28;20094;-81
2022/04/11 07:35:33;;;;;;;9.70;3.22;;;5.10;99.90;;;;;;5100960;28;20035;-81
2022/04/11 07:38:00;;;;;;;6.28;2.95;;;5.20;99.90;;;;;;5109067;28;20107;-80
2022/04/11 07:40:26;;;;;;;7.10;2.97;;;5.30;99.90;;;;;;5123845;27;20066;-80
2022/04/11 07:42:52;;;;;;;15.73;4.10;;;5.40;99.90;;;;;;5112809;28;20046;-79
2022/04/11 07:45:19;;;;;;;9.05;5.25;;;5.50;99.90;;;;;;5119331;28;20028;-85
2022/04/11 07:47:45;;;;;;;18.30;4.75;;;5.70;99.90;;;;;;5099371;27;20118;-83
2022/04/11 07:50:10;;;;;;;5.38;3.63;;;5.80;99.90;;;;;;5114291;28;20517;-82
2022/04/11 07:52:39;;;;;;;7.82;3.65;;;5.80;99.90;;;;;;5114522;28;20040;-81
2022/04/11 07:55:07;;;;;;;4.53;2.33;;;6.00;99.90;;;;;;5103107;28;20046;-85
2022/04/11 07:57:33;;;;;;;7.45;3.10;;;6.00;99.90;;;;;;5077832;28;20043;-81
2022/04/11 07:59:58;;;;;;;5.38;3.63;;;6.00;99.90;;;;;;5101017;28;20088;-84
2022/04/11 08:02:27;;;;;;;9.65;2.95;;;6.10;99.90;;;;;;5113537;27;20048;-82
2022/04/11 08:04:54;;;;;;;10.20;3.63;;;6.30;99.90;;;;;;5106825;28;20075;-84
2022/04/11 08:07:20;;;;;;;30.38;6.25;;;6.40;99.90;;;;;;5108134;28;20035;-83
2022/04/11 08:09:46;;;;;;;11.60;2.83;;;6.70;99.90;;;;;;5114080;28;20039;-87
2022/04/11 08:12:12;;;;;;;5.93;2.13;;;6.90;99.90;;;;;;5110381;27;20433;-88
2022/04/11 08:14:37;;;;;;;5.10;2.33;;;7.10;99.90;;;;;;5114944;27;20096;-86
2022/04/11 08:17:03;;;;;;;7.30;2.72;;;7.00;99.90;;;;;;5101710;27;20067;-86
2022/04/11 08:19:29;;;;;;;5.53;2.30;;;7.10;99.90;;;;;;5115675;27;20036;-85
2022/04/11 08:21:56;;;;;;;5.47;2.38;;;7.00;99.90;;;;;;5112345;28;20043;-86
2022/04/11 08:24:21;;;;;;;4.32;2.70;;;7.00;99.90;;;;;;5105474;28;20402;-85
2022/04/11 08:26:47;;;;;;;3.67;2.15;;;7.10;99.90;;;;;;5109028;28;20052;-85
2022/04/11 08:29:14;;;;;;;4.82;2.60;;;7.40;99.90;;;;;;5121714;27;20542;-86
2022/04/11 08:31:39;;;;;;;15.00;2.75;;;7.50;99.90;;;;;;5112130;28;20035;-85
2022/04/11 08:34:06;;;;;;;3.20;2.35;;;7.70;99.90;;;;;;5105236;28;20062;-83
2022/04/11 08:36:32;;;;;;;5.90;3.05;;;8.10;99.90;;;;;;5106534;28;20042;-86
2022/04/11 08:38:57;;;;;;;6.18;2.08;;;7.90;99.90;;;;;;5104236;28;20035;-84
2022/04/11 08:41:36;;;;;;;13.90;4.15;;;8.10;99.90;;;;;;5092520;28;20085;-83
2022/04/11 08:44:06;;;;;;;5.32;2.05;;;8.30;99.90;;;;;;5107487;27;20073;-86
2022/04/11 08:46:34;;;;;;;10.98;3.53;;;8.40;99.90;;;;;;5082221;28;20097;-83
2022/04/11 08:49:01;;;;;;;5.30;1.70;;;8.40;99.90;;;;;;5109050;28;20036;-83
2022/04/11 08:51:31;;;;;;;4.93;1.70;;;8.50;99.90;;;;;;5111565;28;20513;-84
2022/04/11 08:54:04;;;;;;;5.07;2.47;;;8.50;99.90;;;;;;5095795;27;20062;-85
2022/04/11 08:56:30;;;;;;;4.32;1.90;;;8.70;99.90;;;;;;5095927;28;20130;-84
2022/04/11 08:58:56;;;;;;;16.42;3.90;;;8.60;99.90;;;;;;5101893;27;20039;-81
2022/04/11 09:01:22;;;;;;;5.68;1.58;;;8.70;99.90;;;;;;5112751;27;20680;-85
2022/04/11 09:03:49;;;;;;;1.95;1.10;;;8.90;99.90;;;;;;5097498;28;20068;-82
2022/04/11 09:06:15;;;;;;;4.78;1.92;;;9.00;99.90;;;;;;5122220;27;20039;-83
2022/04/11 09:08:51;;;;;;;3.80;0.85;;;9.10;99.90;;;;;;5134635;27;20347;-83
2022/04/11 09:11:36;;;;;;;3.58;1.25;;;9.20;99.90;;;;;;5134157;27;20122;-83
2022/04/11 09:14:06;;;;;;;2.35;1.20;;;9.40;99.90;;;;;;5126927;27;20047;-83
2022/04/11 09:16:42;;;;;;;2.55;0.85;;;9.60;99.90;;;;;;5113989;27;20454;-82
2022/04/11 09:19:21;;;;;;;8.38;2.25;;;9.60;99.90;;;;;;5119574;27;20031;-81
2022/04/11 09:21:48;;;;;;;2.72;1.10;;;9.60;99.90;;;;;;5091556;28;20055;-81
2022/04/11 09:24:16;;;;;;;1.50;1.38;;;9.70;99.90;;;;;;5091514;28;20432;-81
2022/04/11 09:26:42;;;;;;;3.35;1.23;;;9.70;99.90;;;;;;5090567;28;20056;-80
2022/04/11 09:29:07;;;;;;;4.82;1.17;;;9.80;99.90;;;;;;5106262;27;20048;-81
2022/04/11 09:31:33;;;;;;;2.17;1.70;;;9.90;99.90;;;;;;5109006;27;20094;-81
2022/04/11 09:34:12;;;;;;;4.60;1.48;;;10.00;99.90;;;;;;5095943;27;20043;-81
2022/04/11 09:36:55;;;;;;;4.50;1.27;;;10.10;99.90;;;;;;5092636;28;20390;-81
2022/04/11 09:39:24;;;;;;;1.05;0.93;;;10.30;99.90;;;;;;5094717;27;20062;-82
2022/04/11 09:41:50;;;;;;;7.25;2.63;;;10.10;99.90;;;;;;5109939;28;20040;-81
2022/04/11 09:44:22;;;;;;;3.28;1.10;;;10.20;99.90;;;;;;5090843;28;20051;-82
2022/04/11 09:46:49;;;;;;;20.67;2.25;;;10.20;99.90;;;;;;5107727;28;20112;-81
2022/04/11 09:49:15;;;;;;;2.85;1.33;;;10.30;99.90;;;;;;5085459;28;20374;-85
2022/04/11 09:52:07;;;;;;;5.53;1.88;;;10.40;99.90;;;;;;5108133;28;20062;-83
2022/04/11 09:54:34;;;;;;;5.55;1.85;;;10.70;99.90;;;;;;5102400;27;20056;-83
2022/04/11 09:57:01;;;;;;;3.90;1.55;;;10.90;99.90;;;;;;5093700;28;20036;-80
2022/04/11 09:59:27;;;;;;;2.50;1.50;;;10.90;99.90;;;;;;5098234;28;20044;-77
2022/04/11 10:01:54;;;;;;;3.72;1.35;;;10.60;99.90;;;;;;5077628;28;20032;-77
2022/04/11 10:04:21;;;;;;;5.15;1.83;;;10.60;99.90;;;;;;5111044;28;20043;-77
2022/04/11 10:06:47;;;;;;;5.45;1.63;;;10.60;99.90;;;;;;5092041;27;20044;-83
2022/04/11 10:09:14;;;;;;;5.70;2.20;;;10.90;99.90;;;;;;5109031;28;20409;-83
2022/04/11 10:11:42;;;;;;;3.78;1.92;;;10.90;99.90;;;;;;5094886;28;20509;-83
2022/04/11 10:14:11;;;;;;;3.92;1.95;;;10.80;99.90;;;;;;5095784;28;20047;-84
2022/04/11 10:16:42;;;;;;;7.55;1.90;;;10.80;99.90;;;;;;5097390;28;20106;-85
2022/04/11 10:19:09;;;;;;;10.00;2.70;;;11.20;99.90;;;;;;5105418;28;20040;-85
2022/04/11 10:21:41;;;;;;;5.50;2.25;;;11.20;99.90;;;;;;5105724;27;20040;-82
2022/04/11 10:24:13;;;;;;;7.57;2.53;;;11.10;99.90;;;;;;5113993;28;20031;-80
2022/04/11 10:26:48;;;;;;;8.20;3.10;;;11.20;99.90;;;;;;5094211;27;20153;-78
2022/04/11 10:29:37;;;;;;;3.92;1.90;;;11.30;99.90;;;;;;5101527;27;20044;-85
2022/04/11 10:32:10;;;;;;;3.47;1.58;;;11.40;99.90;;;;;;5107095;28;20401;-85
2022/04/11 10:35:00;;;;;;;3.78;1.92;;;11.40;99.90;;;;;;5104027;28;20048;-84
2022/04/11 10:37:38;;;;;;;3.50;2.03;;;11.30;99.90;;;;;;5095333;28;20044;-85
2022/04/11 10:40:15;;;;;;;2.22;1.83;;;11.30;99.90;;;;;;5100905;28;20044;-85
2022/04/11 10:43:00;;;;;;;4.43;3.20;;;11.60;99.90;;;;;;5099361;28;20397;-83
2022/04/11 10:45:30;;;;;;;5.15;1.60;;;11.40;99.90;;;;;;5107733;28;20531;-84
2022/04/11 10:47:56;;;;;;;9.38;3.00;;;11.60;99.90;;;;;;5105612;27;20039;-84
2022/04/11 10:50:26;;;;;;;2.67;1.95;;;11.60;99.90;;;;;;5102051;28;20039;-85
2022/04/11 10:52:54;;;;;;;3.95;1.95;;;11.30;99.90;;;;;;5105310;27;20063;-84
2022/04/11 10:55:22;;;;;;;4.53;2.00;;;11.40;99.90;;;;;;5100034;27;20449;-84
2022/04/11 10:57:56;;;;;;;2.97;1.52;;;11.40;99.90;;;;;;5109412;28;20036;-79
2022/04/11 11:00:28;;;;;;;2.85;2.03;;;11.60;99.90;;;;;;5101201;28;20055;-84
2022/04/11 11:02:54;;;;;;;5.03;2.03;;;11.80;99.90;;;;;;5114388;27;20031;-83
2022/04/11 11:05:47;;;;;;;5.20;2.15;;;11.90;99.90;;;;;;5112375;27;20043;-83
2022/04/11 11:08:13;;;;;;;4.07;2.67;;;11.70;99.90;;;;;;5110933;28;20047;-82
2022/04/11 11:10:56;;;;;;;6.75;2.95;;;11.90;99.90;;;;;;5109171;28;20044;-80
2022/04/11 11:13:34;;;;;;;4.75;2.00;;;12.10;99.90;;;;;;5090711;28;20040;-84
2022/04/11 11:16:07;;;;;;;7.13;2.85;;;12.00;99.90;;;;;;5090372;28;20135;-81
2022/04/11 11:18:48;;;;;;;7.45;2.40;;;11.90;99.90;;;;;;5110140;28;20054;-82
2022/04/11 11:21:15;;;;;;;5.25;2.90;;;12.00;99.90;;;;;;5114282;28;20417;-83
2022/04/11 11:23:41;;;;;;;4.45;2.55;;;12.10;99.90;;;;;;5129982;27;20035;-83
2022/04/11 11:26:11;;;;;;;5.53;2.00;;;12.30;99.90;;;;;;5131471;27;20565;-82
2022/04/11 11:28:40;;;;;;;3.50;2.22;;;11.80;99.90;;;;;;5102377;27;20436;-83
2022/04/11 11:31:06;;;;;;;5.03;2.70;;;11.70;99.90;;;;;;5092802;28;20105;-82
2022/04/11 11:33:31;;;;;;;17.50;2.60;;;12.10;99.90;;;;;;5100400;28;20035;-84
2022/04/11 11:35:57;;;;;;;8.40;4.10;;;12.10;99.90;;;;;;5091625;28;20108;-77
2022/04/11 11:38:27;;;;;;;5.00;3.03;;;12.20;99.90;;;;;;5099054;28;20531;-79
2022/04/11 11:41:05;;;;;;;4.85;2.38;;;12.70;99.90;;;;;;5105915;28;20044;-79
2022/04/11 11:43:31;;;;;;;5.78;2.20;;;12.30;99.90;;;;;;5091559;28;20048;-79
2022/04/11 11:45:58;;;;;;;3.95;2.60;;;12.40;99.90;;;;;;5087661;28;20062;-80
2022/04/11 11:48:30;;;;;;;4.93;2.83;;;12.40;99.90;;;;;;5098766;28;20040;-80
2022/04/11 11:50:58;;;;;;;4.05;1.73;;;12.30;99.90;;;;;;5096257;28;20036;-80
2022/04/11 11:53:38;;;;;;;5.90;2.90;;;12.10;99.90;;;;;;5107948;28;20503;-79
2022/04/11 11:56:07;;;;;;;3.70;1.98;;;12.30;99.90;;;;;;5108455;28;20297;-80
2022/04/11 11:58:38;;;;;;;6.05;3.10;;;12.50;99.90;;;;;;5091767;27;20111;-80
2022/04/11 12:01:05;;;;;;;3.50;2.15;;;12.70;99.90;;;;;;5105412;28;20040;-80
2022/04/11 12:06:23;;;;;;;6.05;3.38;;;12.50;99.90;;;;;;5101714;28;20478;-80
2022/04/11 12:08:57;;;;;;;6.47;3.08;;;12.80;99.90;;;;;;5091802;27;20043;-80
2022/04/11 12:11:27;;;;;;;5.30;3.10;;;13.00;99.90;;;;;;5076823;28;20538;-79
2022/04/11 12:14:08;;;;;;;12.45;3.80;;;13.10;99.90;;;;;;5098594;28;20048;-79
2022/04/11 12:16:37;;;;;;;7.82;3.45;;;13.20;99.90;;;;;;5093082;27;20612;-80
2022/04/11 12:19:05;;;;;;;10.57;3.87;;;13.00;99.90;;;;;;5102723;28;20105;-79
2022/04/11 12:21:36;;;;;;;6.35;3.63;;;13.00;99.90;;;;;;5099761;27;20082;-80
2022/04/11 12:24:11;;;;;;;9.23;4.13;;;12.90;99.90;;;;;;5102369;27;20043;-80
2022/04/11 12:26:46;;;;;;;5.10;3.10;;;13.00;99.90;;;;;;5092990;28;20048;-80
2022/04/11 12:29:16;;;;;;;5.75;3.92;;;12.80;99.90;;;;;;5110223;27;20054;-80
2022/04/11 12:31:59;;;;;;;5.57;4.00;;;12.90;99.90;;;;;;5101609;28;20047;-80
2022/04/11 12:34:37;;;;;;;4.68;3.40;;;12.70;99.90;;;;;;5120757;27;20040;-82
2022/04/11 12:37:05;;;;;;;11.13;4.80;;;12.90;99.90;;;;;;5096329;28;20040;-78
2022/04/11 12:39:47;;;;;;;4.95;2.65;;;13.30;99.90;;;;;;5112099;27;20043;-79
2022/04/11 12:42:29;;;;;;;7.90;2.65;;;13.10;99.90;;;;;;5089258;28;20039;-79
2022/04/11 12:45:06;;;;;;;6.13;3.20;;;12.90;99.90;;;;;;5114714;27;20620;-80
2022/04/11 12:47:32;;;;;;;6.93;4.05;;;13.00;99.90;;;;;;5108366;28;20443;-79
2022/04/11 12:49:57;;;;;;;5.15;3.33;;;12.80;99.90;;;;;;5105453;28;20087;-80
2022/04/11 12:52:29;;;;;;;4.75;2.97;;;12.90;99.90;;;;;;5101058;27;20054;-79
2022/04/11 12:55:04;;;;;;;4.88;3.20;;;13.10;99.90;;;;;;5097778;27;20438;-80
2022/04/11 12:57:32;;;;;;;4.05;3.35;;;13.20;99.90;;;;;;5115128;27;20176;-78
2022/04/11 13:00:16;;;;;;;3.95;2.67;;;13.10;99.90;;;;;;5105165;28;20039;-78